sensor_id;sensor_type;location;lat;lon;timestamp;pressure;altitude;pressure_sealevel;temperature;humidity
59103;BME280;43999;51.660;5.616;2022-09-17T00:01:28;101128.59;;;10.01;100.00
59103;BME280;43999;51.660;5.616;2022-09-17T00:03:58;101121.50;;;10.03;100.00
59103;BME280;43999;51.660;5.616;2022-09-17T00:06:32;101131.91;;;10.05;100.00
59103;BME280;43999;51.660;5.616;2022-09-17T00:09:02;101135.34;;;10.07;100.00
59103;BME280;43999;51.660;5.616;2022-09-17T00:11:33;101135.34;;;10.07;100.00
59103;BME280;43999;51.660;5.616;2022-09-17T00:14:04;101139.63;;;10.08;100.00
59103;BME280;43999;51.660;5.616;2022-09-17T00:16:41;101142.16;;;10.10;100.00
59103;BME280;43999;51.660;5.616;2022-09-17T00:19:18;101144.72;;;10.11;100.00
59103;BME280;43999;51.660;5.616;2022-09-17T00:21:48;101149.88;;;10.13;100.00
59103;BME280;43999;51.660;5.616;2022-09-17T00:24:19;101146.44;;;10.12;100.00
59103;BME280;43999;51.660;5.616;2022-09-17T00:26:47;101142.03;;;10.13;100.00
59103;BME280;43999;51.660;5.616;2022-09-17T00:29:16;101153.31;;;10.15;100.00
59103;BME280;43999;51.660;5.616;2022-09-17T00:31:43;101156.84;;;10.14;100.00
59103;BME280;43999;51.660;5.616;2022-09-17T00:34:11;101148.97;;;10.14;100.00
59103;BME280;43999;51.660;5.616;2022-09-17T00:36:38;101153.38;;;10.13;100.00
59103;BME280;43999;51.660;5.616;2022-09-17T00:39:07;101155.13;;;10.13;100.00
59103;BME280;43999;51.660;5.616;2022-09-17T00:41:37;101156.91;;;10.12;100.00
59103;BME280;43999;51.660;5.616;2022-09-17T00:47:26;101152.44;;;10.14;100.00
59103;BME280;43999;51.660;5.616;2022-09-17T00:50:07;101160.22;;;10.16;100.00
59103;BME280;43999;51.660;5.616;2022-09-17T00:52:57;101157.53;;;10.17;100.00
59103;BME280;43999;51.660;5.616;2022-09-17T00:55:37;101156.75;;;10.15;100.00
59103;BME280;43999;51.660;5.616;2022-09-17T00:58:08;101166.31;;;10.16;100.00
59103;BME280;43999;51.660;5.616;2022-09-17T01:00:37;101162.84;;;10.16;100.00
59103;BME280;43999;51.660;5.616;2022-09-17T01:03:05;101161.94;;;10.17;100.00
59103;BME280;43999;51.660;5.616;2022-09-17T01:26:49;101183.44;;;10.23;100.00
59103;BME280;43999;51.660;5.616;2022-09-17T01:38:30;101188.81;;;10.20;100.00
59103;BME280;43999;51.660;5.616;2022-09-17T01:41:52;101195.00;;;10.19;100.00
59103;BME280;43999;51.660;5.616;2022-09-17T01:44:34;101192.44;;;10.18;100.00
59103;BME280;43999;51.660;5.616;2022-09-17T01:47:12;101195.06;;;10.18;100.00
59103;BME280;43999;51.660;5.616;2022-09-17T01:49:49;101195.97;;;10.17;100.00
59103;BME280;43999;51.660;5.616;2022-09-17T01:52:19;101195.19;;;10.15;100.00
59103;BME280;43999;51.660;5.616;2022-09-17T01:54:49;101199.56;;;10.14;100.00
59103;BME280;43999;51.660;5.616;2022-09-17T01:57:26;101196.09;;;10.14;100.00
59103;BME280;43999;51.660;5.616;2022-09-17T02:00:10;101193.56;;;10.12;100.00
59103;BME280;43999;51.660;5.616;2022-09-17T02:02:53;101184.06;;;10.10;100.00
59103;BME280;43999;51.660;5.616;2022-09-17T02:08:25;101193.91;;;10.04;100.00
59103;BME280;43999;51.660;5.616;2022-09-17T02:11:11;101194.91;;;10.02;100.00
59103;BME280;43999;51.660;5.616;2022-09-17T02:19:10;101203.69;;;10.01;100.00
59103;BME280;43999;51.660;5.616;2022-09-17T02:22:00;101201.06;;;10.01;100.00
59103;BME280;43999;51.660;5.616;2022-09-17T02:30:11;101197.44;;;10.03;100.00
59103;BME280;43999;51.660;5.616;2022-09-17T02:32:39;101197.44;;;10.03;100.00
59103;BME280;43999;51.660;5.616;2022-09-17T02:35:11;101199.28;;;10.01;100.00
59103;BME280;43999;51.660;5.616;2022-09-17T02:37:42;101198.59;;;9.98;100.00
59103;BME280;43999;51.660;5.616;2022-09-17T02:40:11;101206.50;;;9.96;100.00
59103;BME280;43999;51.660;5.616;2022-09-17T02:43:12;101205.78;;;9.93;100.00
59103;BME280;43999;51.660;5.616;2022-09-17T02:46:07;101217.19;;;9.92;100.00
59103;BME280;43999;51.660;5.616;2022-09-17T02:55:09;101215.56;;;9.89;100.00
59103;BME280;43999;51.660;5.616;2022-09-17T03:00:43;101215.41;;;9.92;100.00
59103;BME280;43999;51.660;5.616;2022-09-17T03:03:23;101210.03;;;9.95;100.00
59103;BME280;43999;51.660;5.616;2022-09-17T03:05:57;101211.75;;;9.96;100.00
59103;BME280;43999;51.660;5.616;2022-09-17T03:08:27;101203.84;;;9.98;100.00
59103;BME280;43999;51.660;5.616;2022-09-17T03:10:58;101201.16;;;9.99;100.00
59103;BME280;43999;51.660;5.616;2022-09-17T03:13:25;101202.06;;;9.98;100.00
59103;BME280;43999;51.660;5.616;2022-09-17T03:15:52;101200.34;;;9.97;100.00
59103;BME280;43999;51.660;5.616;2022-09-17T03:18:19;101207.34;;;9.97;100.00
59103;BME280;43999;51.660;5.616;2022-09-17T03:20:46;101214.44;;;9.95;100.00
59103;BME280;43999;51.660;5.616;2022-09-17T03:23:14;101213.56;;;9.94;100.00
59103;BME280;43999;51.660;5.616;2022-09-17T03:25:42;101211.03;;;9.93;100.00
59103;BME280;43999;51.660;5.616;2022-09-17T03:28:09;101205.84;;;9.91;100.00
59103;BME280;43999;51.660;5.616;2022-09-17T03:30:37;101220.72;;;9.91;100.00
59103;BME280;43999;51.660;5.616;2022-09-17T03:33:04;101213.63;;;9.93;100.00
59103;BME280;43999;51.660;5.616;2022-09-17T03:35:31;101210.13;;;9.94;100.00
59103;BME280;43999;51.660;5.616;2022-09-17T03:37:58;101206.50;;;9.96;100.00
59103;BME280;43999;51.660;5.616;2022-09-17T03:40:25;101197.66;;;9.99;100.00
59103;BME280;43999;51.660;5.616;2022-09-17T03:42:53;101197.50;;;10.02;100.00
59103;BME280;43999;51.660;5.616;2022-09-17T03:45:20;101190.38;;;10.05;100.00
59103;BME280;43999;51.660;5.616;2022-09-17T03:47:47;101194.63;;;10.08;100.00
59103;BME280;43999;51.660;5.616;2022-09-17T03:50:14;101196.41;;;10.08;100.00
59103;BME280;43999;51.660;5.616;2022-09-17T03:52:44;101199.00;;;10.08;100.00
59103;BME280;43999;51.660;5.616;2022-09-17T03:55:12;101198.03;;;10.10;100.00
59103;BME280;43999;51.660;5.616;2022-09-17T03:57:39;101212.81;;;10.11;100.00
59103;BME280;43999;51.660;5.616;2022-09-17T04:00:06;101244.97;;;10.15;100.00
59103;BME280;43999;51.660;5.616;2022-09-17T04:02:37;101238.91;;;10.13;100.00
59103;BME280;43999;51.660;5.616;2022-09-17T04:05:06;101229.88;;;10.01;100.00
59103;BME280;43999;51.660;5.616;2022-09-17T04:07:34;101212.09;;;9.89;100.00
59103;BME280;43999;51.660;5.616;2022-09-17T04:10:01;101210.03;;;9.76;100.00
59103;BME280;43999;51.660;5.616;2022-09-17T04:12:28;101205.19;;;9.67;100.00
59103;BME280;43999;51.660;5.616;2022-09-17T04:14:55;101207.34;;;9.57;100.00
59103;BME280;43999;51.660;5.616;2022-09-17T04:17:22;101212.91;;;9.49;100.00
59103;BME280;43999;51.660;5.616;2022-09-17T04:19:49;101224.59;;;9.42;100.00
59103;BME280;43999;51.660;5.616;2022-09-17T04:22:17;101229.28;;;9.34;100.00
59103;BME280;43999;51.660;5.616;2022-09-17T04:24:44;101226.97;;;9.26;100.00
59103;BME280;43999;51.660;5.616;2022-09-17T04:27:11;101231.63;;;9.20;100.00
59103;BME280;43999;51.660;5.616;2022-09-17T04:29:38;101239.66;;;9.15;100.00
59103;BME280;43999;51.660;5.616;2022-09-17T04:32:05;101233.78;;;9.10;100.00
59103;BME280;43999;51.660;5.616;2022-09-17T04:34:33;101238.28;;;9.06;100.00
59103;BME280;43999;51.660;5.616;2022-09-17T04:37:00;101237.50;;;9.04;100.00
59103;BME280;43999;51.660;5.616;2022-09-17T04:39:27;101233.25;;;9.02;100.00
59103;BME280;43999;51.660;5.616;2022-09-17T04:41:55;101232.38;;;9.01;100.00
59103;BME280;43999;51.660;5.616;2022-09-17T04:44:22;101233.31;;;9.00;100.00
59103;BME280;43999;51.660;5.616;2022-09-17T04:46:49;101236.97;;;8.96;100.00
59103;BME280;43999;51.660;5.616;2022-09-17T04:49:16;101231.78;;;8.94;100.00
59103;BME280;43999;51.660;5.616;2022-09-17T04:51:43;101244.94;;;8.93;100.00
59103;BME280;43999;51.660;5.616;2022-09-17T04:54:10;101238.06;;;8.90;100.00
59103;BME280;43999;51.660;5.616;2022-09-17T04:56:38;101234.66;;;8.88;100.00
59103;BME280;43999;51.660;5.616;2022-09-17T04:59:06;101243.41;;;8.87;100.00
59103;BME280;43999;51.660;5.616;2022-09-17T05:01:33;101240.84;;;8.86;100.00
59103;BME280;43999;51.660;5.616;2022-09-17T05:04:00;101237.34;;;8.87;100.00
59103;BME280;43999;51.660;5.616;2022-09-17T05:06:28;101235.56;;;8.87;100.00
59103;BME280;43999;51.660;5.616;2022-09-17T05:08:55;101230.34;;;8.87;100.00
59103;BME280;43999;51.660;5.616;2022-09-17T05:11:22;101236.38;;;8.89;100.00
59103;BME280;43999;51.660;5.616;2022-09-17T05:13:49;101243.28;;;8.90;100.00
59103;BME280;43999;51.660;5.616;2022-09-17T05:16:19;101249.31;;;8.92;100.00
59103;BME280;43999;51.660;5.616;2022-09-17T05:18:47;101254.41;;;8.95;100.00
59103;BME280;43999;51.660;5.616;2022-09-17T05:21:15;101255.25;;;8.96;100.00
59103;BME280;43999;51.660;5.616;2022-09-17T05:23:42;101253.47;;;8.96;100.00
59103;BME280;43999;51.660;5.616;2022-09-17T05:26:09;101253.47;;;8.96;100.00
59103;BME280;43999;51.660;5.616;2022-09-17T05:28:36;101263.94;;;8.96;100.00
59103;BME280;43999;51.660;5.616;2022-09-17T05:31:04;101259.59;;;8.97;100.00
59103;BME280;43999;51.660;5.616;2022-09-17T05:33:31;101263.94;;;8.96;100.00
59103;BME280;43999;51.660;5.616;2022-09-17T05:35:58;101258.72;;;8.96;100.00
59103;BME280;43999;51.660;5.616;2022-09-17T05:38:26;101262.25;;;8.95;100.00
59103;BME280;43999;51.660;5.616;2022-09-17T05:40:53;101264.81;;;8.97;100.00
59103;BME280;43999;51.660;5.616;2022-09-17T05:43:20;101273.50;;;8.97;100.00
59103;BME280;43999;51.660;5.616;2022-09-17T05:45:47;101271.78;;;8.96;100.00
59103;BME280;43999;51.660;5.616;2022-09-17T05:48:14;101266.56;;;8.96;100.00
59103;BME280;43999;51.660;5.616;2022-09-17T05:50:44;101267.38;;;8.99;100.00
59103;BME280;43999;51.660;5.616;2022-09-17T05:53:12;101267.31;;;9.00;100.00
59103;BME280;43999;51.660;5.616;2022-09-17T05:55:39;101274.09;;;9.04;100.00
59103;BME280;43999;51.660;5.616;2022-09-17T05:58:16;101277.44;;;9.08;100.00
59103;BME280;43999;51.660;5.616;2022-09-17T06:00:45;101284.34;;;9.09;100.00
59103;BME280;43999;51.660;5.616;2022-09-17T06:03:16;101281.69;;;9.10;100.00
59103;BME280;43999;51.660;5.616;2022-09-17T06:05:56;101290.28;;;9.14;100.00
59103;BME280;43999;51.660;5.616;2022-09-17T06:08:26;101290.09;;;9.19;100.00
59103;BME280;43999;51.660;5.616;2022-09-17T06:10:54;101297.72;;;9.23;100.00
59103;BME280;43999;51.660;5.616;2022-09-17T06:13:27;101294.84;;;9.29;100.00
59103;BME280;43999;51.660;5.616;2022-09-17T06:15:54;101296.44;;;9.33;100.00
59103;BME280;43999;51.660;5.616;2022-09-17T06:18:22;101297.06;;;9.39;100.00
59103;BME280;43999;51.660;5.616;2022-09-17T06:20:53;101302.19;;;9.42;100.00
59103;BME280;43999;51.660;5.616;2022-09-17T06:23:21;101302.72;;;9.50;100.00
59103;BME280;43999;51.660;5.616;2022-09-17T06:25:58;101297.25;;;9.56;100.00
59103;BME280;43999;51.660;5.616;2022-09-17T06:28:26;101305.59;;;9.64;100.00
59103;BME280;43999;51.660;5.616;2022-09-17T06:31:00;101293.22;;;9.68;100.00
59103;BME280;43999;51.660;5.616;2022-09-17T06:33:29;101296.47;;;9.75;100.00
59103;BME280;43999;51.660;5.616;2022-09-17T06:35:57;101293.66;;;9.79;100.00
59103;BME280;43999;51.660;5.616;2022-09-17T06:38:27;101289.97;;;9.83;100.00
59103;BME280;43999;51.660;5.616;2022-09-17T06:40:55;101295.94;;;9.87;100.00
59103;BME280;43999;51.660;5.616;2022-09-17T06:43:22;101296.69;;;9.89;100.00
59103;BME280;43999;51.660;5.616;2022-09-17T06:45:54;101300.16;;;9.90;100.00
59103;BME280;43999;51.660;5.616;2022-09-17T06:48:23;101301.88;;;9.91;100.00
59103;BME280;43999;51.660;5.616;2022-09-17T06:50:53;101302.72;;;9.91;100.00
59103;BME280;43999;51.660;5.616;2022-09-17T06:53:21;101306.25;;;9.90;100.00
59103;BME280;43999;51.660;5.616;2022-09-17T06:55:49;101302.72;;;9.91;100.00
59103;BME280;43999;51.660;5.616;2022-09-17T06:58:17;101300.03;;;9.93;100.00
59103;BME280;43999;51.660;5.616;2022-09-17T07:00:44;101304.41;;;9.92;100.00
59103;BME280;43999;51.660;5.616;2022-09-17T07:03:11;101304.28;;;9.95;100.00
59103;BME280;43999;51.660;5.616;2022-09-17T07:05:38;101308.56;;;9.98;100.00
59103;BME280;43999;51.660;5.616;2022-09-17T07:08:05;101301.47;;;10.00;100.00
59103;BME280;43999;51.660;5.616;2022-09-17T07:10:32;101304.09;;;10.00;100.00
59103;BME280;43999;51.660;5.616;2022-09-17T07:13:00;101306.44;;;10.06;100.00
59103;BME280;43999;51.660;5.616;2022-09-17T07:15:28;101305.31;;;10.12;100.00
59103;BME280;43999;51.660;5.616;2022-09-17T07:17:56;101300.66;;;10.18;100.00
59103;BME280;43999;51.660;5.616;2022-09-17T07:20:23;101301.22;;;10.25;100.00
59103;BME280;43999;51.660;5.616;2022-09-17T07:22:54;101303.53;;;10.33;100.00
59103;BME280;43999;51.660;5.616;2022-09-17T07:25:24;101307.50;;;10.42;100.00
59103;BME280;43999;51.660;5.616;2022-09-17T07:27:55;101305.31;;;10.51;100.00
59103;BME280;43999;51.660;5.616;2022-09-17T07:30:22;101304.19;;;10.57;100.00
59103;BME280;43999;51.660;5.616;2022-09-17T07:32:50;101307.41;;;10.62;100.00
59103;BME280;43999;51.660;5.616;2022-09-17T07:35:17;101309.75;;;10.68;100.00
59103;BME280;43999;51.660;5.616;2022-09-17T07:37:44;101307.75;;;10.73;100.00
59103;BME280;43999;51.660;5.616;2022-09-17T07:40:11;101309.31;;;10.77;100.00
59103;BME280;43999;51.660;5.616;2022-09-17T07:42:38;101308.28;;;10.82;100.00
59103;BME280;43999;51.660;5.616;2022-09-17T07:45:06;101311.50;;;10.87;100.00
59103;BME280;43999;51.660;5.616;2022-09-17T07:47:39;101313.84;;;10.93;100.00
59103;BME280;43999;51.660;5.616;2022-09-17T07:50:07;101310.84;;;11.01;100.00
59103;BME280;43999;51.660;5.616;2022-09-17T07:52:35;101304.41;;;11.08;100.00
59103;BME280;43999;51.660;5.616;2022-09-17T07:55:02;101306.81;;;11.12;100.00
59103;BME280;43999;51.660;5.616;2022-09-17T07:57:30;101305.63;;;11.18;100.00
59103;BME280;43999;51.660;5.616;2022-09-17T07:59:57;101309.59;;;11.27;100.00
59103;BME280;43999;51.660;5.616;2022-09-17T08:02:24;101314.06;;;11.42;100.00
59103;BME280;43999;51.660;5.616;2022-09-17T08:04:51;101310.69;;;11.58;100.00
59103;BME280;43999;51.660;5.616;2022-09-17T08:07:19;101315.38;;;11.69;100.00
59103;BME280;43999;51.660;5.616;2022-09-17T08:09:46;101328.50;;;11.69;100.00
59103;BME280;43999;51.660;5.616;2022-09-17T08:12:13;101320.72;;;11.50;100.00
59103;BME280;43999;51.660;5.616;2022-09-17T08:14:40;101325.31;;;11.27;100.00
59103;BME280;43999;51.660;5.616;2022-09-17T08:17:08;101326.16;;;11.10;100.00
59103;BME280;43999;51.660;5.616;2022-09-17T08:19:35;101320.78;;;10.94;100.00
59103;BME280;43999;51.660;5.616;2022-09-17T08:22:02;101316.28;;;10.79;100.00
59103;BME280;43999;51.660;5.616;2022-09-17T08:24:29;101315.91;;;10.67;100.00
59103;BME280;43999;51.660;5.616;2022-09-17T08:26:56;101324.06;;;10.61;100.00
59103;BME280;43999;51.660;5.616;2022-09-17T08:29:24;101320.66;;;10.59;100.00
59103;BME280;43999;51.660;5.616;2022-09-17T08:31:51;101326.06;;;10.56;100.00
59103;BME280;43999;51.660;5.616;2022-09-17T08:34:18;101330.44;;;10.55;100.00
59103;BME280;43999;51.660;5.616;2022-09-17T08:36:45;101326.88;;;10.56;100.00
59103;BME280;43999;51.660;5.616;2022-09-17T08:39:12;101330.25;;;10.60;100.00
59103;BME280;43999;51.660;5.616;2022-09-17T08:44:37;101326.97;;;10.74;100.00
59103;BME280;43999;51.660;5.616;2022-09-17T08:49:55;101318.03;;;10.97;100.00
59103;BME280;43999;51.660;5.616;2022-09-17T09:01:21;101322.56;;;11.65;100.00
59103;BME280;43999;51.660;5.616;2022-09-17T09:04:38;101318.00;;;11.86;100.00
59103;BME280;43999;51.660;5.616;2022-09-17T09:07:11;101323.25;;;12.04;100.00
59103;BME280;43999;51.660;5.616;2022-09-17T09:10:03;101318.03;;;12.19;100.00
59103;BME280;43999;51.660;5.616;2022-09-17T09:12:38;101326.03;;;12.34;100.00
59103;BME280;43999;51.660;5.616;2022-09-17T09:15:42;101323.66;;;12.45;100.00
59103;BME280;43999;51.660;5.616;2022-09-17T09:18:24;101325.03;;;12.52;100.00
59103;BME280;43999;51.660;5.616;2022-09-17T09:24:29;101327.25;;;12.76;100.00
59103;BME280;43999;51.660;5.616;2022-09-17T09:27:00;101321.22;;;12.90;100.00
59103;BME280;43999;51.660;5.616;2022-09-17T09:35:31;101328.94;;;12.93;100.00
59103;BME280;43999;51.660;5.616;2022-09-17T09:38:03;101330.84;;;12.75;100.00
59103;BME280;43999;51.660;5.616;2022-09-17T09:44:03;101344.41;;;12.18;100.00
59103;BME280;43999;51.660;5.616;2022-09-17T09:50:04;101351.06;;;11.73;100.00
59103;BME280;43999;51.660;5.616;2022-09-17T09:53:35;101346.66;;;11.56;100.00
59103;BME280;43999;51.660;5.616;2022-09-17T09:59:26;101349.09;;;11.41;100.00
59103;BME280;43999;51.660;5.616;2022-09-17T10:01:53;101349.19;;;11.40;100.00
59103;BME280;43999;51.660;5.616;2022-09-17T10:04:25;101346.19;;;11.47;100.00
59103;BME280;43999;51.660;5.616;2022-09-17T10:07:07;101345.41;;;11.63;100.00
59103;BME280;43999;51.660;5.616;2022-09-17T10:09:38;101336.75;;;11.78;100.00
59103;BME280;43999;51.660;5.616;2022-09-17T10:14:39;101349.41;;;12.23;100.00
59103;BME280;43999;51.660;5.616;2022-09-17T10:17:22;101331.38;;;12.48;100.00
59103;BME280;43999;51.660;5.616;2022-09-17T10:22:38;101333.00;;;12.67;100.00
59103;BME280;43999;51.660;5.616;2022-09-17T10:28:00;101331.34;;;12.82;100.00
59103;BME280;43999;51.660;5.616;2022-09-17T10:30:30;101324.97;;;13.32;100.00
59103;BME280;43999;51.660;5.616;2022-09-17T10:33:18;101325.53;;;14.12;100.00
59103;BME280;43999;51.660;5.616;2022-09-17T10:38:33;101321.78;;;15.41;95.22
59103;BME280;43999;51.660;5.616;2022-09-17T10:41:15;101325.25;;;15.95;89.91
59103;BME280;43999;51.660;5.616;2022-09-17T10:43:48;101320.03;;;16.32;82.38
59103;BME280;43999;51.660;5.616;2022-09-17T10:46:22;101317.88;;;16.63;88.29
59103;BME280;43999;51.660;5.616;2022-09-17T10:51:32;101322.91;;;17.27;81.42
59103;BME280;43999;51.660;5.616;2022-09-17T10:56:41;101318.94;;;17.68;77.31
59103;BME280;43999;51.660;5.616;2022-09-17T10:59:36;101323.19;;;17.82;75.96
59103;BME280;43999;51.660;5.616;2022-09-17T11:08:24;101327.38;;;17.73;69.80
59103;BME280;43999;51.660;5.616;2022-09-17T11:11:05;101319.53;;;17.61;70.76
59103;BME280;43999;51.660;5.616;2022-09-17T11:16:45;101305.34;;;17.02;70.86
59103;BME280;43999;51.660;5.616;2022-09-17T11:22:15;101295.16;;;16.47;77.13
59103;BME280;43999;51.660;5.616;2022-09-17T11:24:51;101295.97;;;16.24;77.29
59103;BME280;43999;51.660;5.616;2022-09-17T11:27:40;101307.47;;;15.58;82.96
59103;BME280;43999;51.660;5.616;2022-09-17T11:31:09;101301.31;;;15.18;89.34
59103;BME280;43999;51.660;5.616;2022-09-17T11:36:32;101306.88;;;15.00;94.73
59103;BME280;43999;51.660;5.616;2022-09-17T11:39:17;101299.50;;;15.05;91.71
59103;BME280;43999;51.660;5.616;2022-09-17T11:41:54;101294.69;;;15.12;90.42
59103;BME280;43999;51.660;5.616;2022-09-17T11:44:36;101291.75;;;15.17;87.93
59103;BME280;43999;51.660;5.616;2022-09-17T11:47:08;101286.25;;;15.20;86.87
59103;BME280;43999;51.660;5.616;2022-09-17T11:49:52;101295.53;;;15.26;84.99
59103;BME280;43999;51.660;5.616;2022-09-17T11:52:42;101294.59;;;15.27;85.62
59103;BME280;43999;51.660;5.616;2022-09-17T11:58:25;101284.56;;;15.32;84.52
59103;BME280;43999;51.660;5.616;2022-09-17T12:00:59;101288.59;;;15.37;83.49
59103;BME280;43999;51.660;5.616;2022-09-17T12:04:16;101275.00;;;15.44;82.52
59103;BME280;43999;51.660;5.616;2022-09-17T12:06:42;101277.13;;;15.51;81.00
59103;BME280;43999;51.660;5.616;2022-09-17T12:09:20;101270.69;;;15.55;78.17
59103;BME280;43999;51.660;5.616;2022-09-17T12:11:59;101265.81;;;15.62;79.79
59103;BME280;43999;51.660;5.616;2022-09-17T12:15:13;101251.78;;;15.74;80.62
59103;BME280;43999;51.660;5.616;2022-09-17T12:17:51;101252.94;;;15.83;75.46
59103;BME280;43999;51.660;5.616;2022-09-17T12:20:52;101258.88;;;15.87;74.71
59103;BME280;43999;51.660;5.616;2022-09-17T12:23:37;101270.28;;;15.87;74.87
59103;BME280;43999;51.660;5.616;2022-09-17T12:26:15;101256.31;;;15.98;76.81
59103;BME280;43999;51.660;5.616;2022-09-17T12:35:22;101265.72;;;16.15;78.14
59103;BME280;43999;51.660;5.616;2022-09-17T12:50:53;101258.59;;;16.28;60.51
59103;BME280;43999;51.660;5.616;2022-09-17T12:54:09;101258.38;;;16.31;57.56
59103;BME280;43999;51.660;5.616;2022-09-17T12:57:00;101249.69;;;16.42;57.54
59103;BME280;43999;51.660;5.616;2022-09-17T12:59:31;101245.72;;;16.61;57.25
59103;BME280;43999;51.660;5.616;2022-09-17T13:13:35;101246.41;;;17.58;51.32
59103;BME280;43999;51.660;5.616;2022-09-17T13:22:26;101259.88;;;17.32;54.98
59103;BME280;43999;51.660;5.616;2022-09-17T13:25:10;101256.44;;;17.19;55.76
59103;BME280;43999;51.660;5.616;2022-09-17T13:27:39;101258.78;;;16.99;58.92
59103;BME280;43999;51.660;5.616;2022-09-17T13:30:09;101266.84;;;16.85;58.45
59103;BME280;43999;51.660;5.616;2022-09-17T13:37:33;101272.13;;;16.37;58.44
59103;BME280;43999;51.660;5.616;2022-09-17T13:40:04;101266.09;;;16.22;59.87
59103;BME280;43999;51.660;5.616;2022-09-17T13:42:46;101269.19;;;16.16;60.96
59103;BME280;43999;51.660;5.616;2022-09-17T13:45:17;101267.81;;;16.23;62.20
59103;BME280;43999;51.660;5.616;2022-09-17T13:47:52;101266.59;;;16.40;62.85
59103;BME280;43999;51.660;5.616;2022-09-17T13:50:41;101263.53;;;16.46;56.31
59103;BME280;43999;51.660;5.616;2022-09-17T13:55:53;101261.53;;;16.37;54.56
59103;BME280;43999;51.660;5.616;2022-09-17T13:58:28;101255.63;;;16.33;56.40
59103;BME280;43999;51.660;5.616;2022-09-17T14:21:45;101262.34;;;16.50;56.91
59103;BME280;43999;51.660;5.616;2022-09-17T14:30:18;101261.47;;;16.12;57.30
59103;BME280;43999;51.660;5.616;2022-09-17T14:38:22;101261.59;;;15.98;57.71
59103;BME280;43999;51.660;5.616;2022-09-17T14:51:59;101263.78;;;16.91;52.34
59103;BME280;43999;51.660;5.616;2022-09-17T14:54:29;101265.22;;;17.66;48.71
59103;BME280;43999;51.660;5.616;2022-09-17T14:59:55;101268.66;;;19.55;45.41
59103;BME280;43999;51.660;5.616;2022-09-17T15:02:35;101258.13;;;20.36;43.94
59103;BME280;43999;51.660;5.616;2022-09-17T15:05:25;101255.13;;;21.09;41.63
59103;BME280;43999;51.660;5.616;2022-09-17T15:13:49;101255.16;;;22.41;36.43
59103;BME280;43999;51.660;5.616;2022-09-17T15:18:53;101265.41;;;22.64;37.89
59103;BME280;43999;51.660;5.616;2022-09-17T15:21:43;101263.44;;;22.84;39.69
59103;BME280;43999;51.660;5.616;2022-09-17T15:26:51;101276.59;;;21.07;42.03
59103;BME280;43999;51.660;5.616;2022-09-17T15:29:22;101281.84;;;20.08;44.45
59103;BME280;43999;51.660;5.616;2022-09-17T15:31:54;101287.72;;;19.39;46.44
59103;BME280;43999;51.660;5.616;2022-09-17T15:34:21;101291.19;;;18.42;49.81
59103;BME280;43999;51.660;5.616;2022-09-17T15:37:26;101288.34;;;17.64;52.32
59103;BME280;43999;51.660;5.616;2022-09-17T15:39:54;101293.50;;;17.19;54.78
59103;BME280;43999;51.660;5.616;2022-09-17T15:42:29;101292.19;;;16.89;56.02
59103;BME280;43999;51.660;5.616;2022-09-17T15:47:49;101293.66;;;16.56;59.80
59103;BME280;43999;51.660;5.616;2022-09-17T15:53:11;101295.78;;;16.88;60.74
59103;BME280;43999;51.660;5.616;2022-09-17T15:55:44;101296.31;;;16.80;58.06
59103;BME280;43999;51.660;5.616;2022-09-17T16:04:09;101294.00;;;16.76;60.60
59103;BME280;43999;51.660;5.616;2022-09-17T16:06:58;101291.53;;;17.34;58.34
59103;BME280;43999;51.660;5.616;2022-09-17T16:09:54;101293.19;;;17.82;56.95
59103;BME280;43999;51.660;5.616;2022-09-17T16:12:24;101298.09;;;17.64;57.40
59103;BME280;43999;51.660;5.616;2022-09-17T16:14:56;101291.59;;;17.21;57.64
59103;BME280;43999;51.660;5.616;2022-09-17T16:17:44;101293.66;;;16.80;58.27
59103;BME280;43999;51.660;5.616;2022-09-17T16:20:20;101291.13;;;16.42;59.48
59103;BME280;43999;51.660;5.616;2022-09-17T16:22:52;101287.69;;;16.16;59.96
59103;BME280;43999;51.660;5.616;2022-09-17T16:25:26;101291.50;;;15.99;61.55
59103;BME280;43999;51.660;5.616;2022-09-17T16:28:14;101287.84;;;15.88;62.31
59103;BME280;43999;51.660;5.616;2022-09-17T16:30:46;101301.97;;;15.74;62.63
59103;BME280;43999;51.660;5.616;2022-09-17T16:33:16;101295.72;;;15.63;61.20
59103;BME280;43999;51.660;5.616;2022-09-17T16:35:44;101308.72;;;15.53;60.09
59103;BME280;43999;51.660;5.616;2022-09-17T16:38:12;101302.44;;;15.41;59.43
59103;BME280;43999;51.660;5.616;2022-09-17T16:40:44;101307.72;;;15.28;59.35
59103;BME280;43999;51.660;5.616;2022-09-17T16:43:15;101312.75;;;15.18;59.37
59103;BME280;43999;51.660;5.616;2022-09-17T16:45:43;101317.56;;;15.12;60.10
59103;BME280;43999;51.660;5.616;2022-09-17T16:48:23;101312.78;;;15.04;59.38
59103;BME280;43999;51.660;5.616;2022-09-17T16:50:50;101314.25;;;14.95;59.21
59103;BME280;43999;51.660;5.616;2022-09-17T16:53:18;101316.53;;;14.87;59.25
59103;BME280;43999;51.660;5.616;2022-09-17T16:55:45;101314.47;;;14.78;57.98
59103;BME280;43999;51.660;5.616;2022-09-17T16:58:12;101321.09;;;14.70;58.08
59103;BME280;43999;51.660;5.616;2022-09-17T17:00:43;101325.91;;;14.64;58.29
59103;BME280;43999;51.660;5.616;2022-09-17T17:03:12;101325.31;;;14.59;57.74
59103;BME280;43999;51.660;5.616;2022-09-17T17:05:40;101328.34;;;14.52;57.85
59103;BME280;43999;51.660;5.616;2022-09-17T17:08:07;101325.16;;;14.47;58.24
59103;BME280;43999;51.660;5.616;2022-09-17T17:10:36;101327.91;;;14.46;58.22
59103;BME280;43999;51.660;5.616;2022-09-17T17:13:04;101329.13;;;14.40;59.61
59103;BME280;43999;51.660;5.616;2022-09-17T17:15:32;101331.47;;;14.30;60.19